createdAt,value
2022-09-25T00:01:30.407Z,76.31
2022-09-25T00:03:58.432Z,76.34
2022-09-25T00:06:28.644Z,76.27
2022-09-25T00:08:58.330Z,76.58
2022-09-25T00:11:32.168Z,76.55
2022-09-25T00:14:02.235Z,76.28
2022-09-25T00:16:32.780Z,76.07
2022-09-25T00:19:20.692Z,76.87
2022-09-25T00:21:52.813Z,76.76
2022-09-25T00:24:21.391Z,77.17
2022-09-25T00:26:50.402Z,77.37
2022-09-25T00:29:21.119Z,76.86
2022-09-25T00:31:49.395Z,76.84
2022-09-25T00:34:17.621Z,77.03
2022-09-25T00:36:45.543Z,77.32
2022-09-25T00:39:13.827Z,77.34
2022-09-25T00:41:41.988Z,76.76
2022-09-25T00:44:49.594Z,76.96
2022-09-25T00:47:23.485Z,76.87
2022-09-25T00:49:56.020Z,76.66
2022-09-25T00:52:26.377Z,76.66
2022-09-25T00:55:06.580Z,77.80
2022-09-25T00:57:57.383Z,77.07
2022-09-25T01:00:25.888Z,76.80
2022-09-25T01:02:56.140Z,77.34
2022-09-25T01:05:33.633Z,77.42
2022-09-25T01:08:06.592Z,77.07
2022-09-25T01:10:34.551Z,77.43
2022-09-25T01:13:02.944Z,77.62
2022-09-25T01:15:49.741Z,77.35
2022-09-25T01:18:18.567Z,77.69
2022-09-25T01:21:06.014Z,77.07
2022-09-25T01:24:00.750Z,77.45
2022-09-25T01:26:49.840Z,77.25
2022-09-25T01:29:21.789Z,77.68
2022-09-25T01:32:04.904Z,77.02
2022-09-25T01:34:51.489Z,77.32
2022-09-25T01:37:30.615Z,77.00
2022-09-25T01:40:04.515Z,77.09
2022-09-25T01:42:42.387Z,77.07
2022-09-25T01:45:19.400Z,76.82
2022-09-25T01:47:51.474Z,76.89
2022-09-25T01:50:30.989Z,76.73
2022-09-25T01:53:02.931Z,76.96
2022-09-25T01:55:44.232Z,76.99
2022-09-25T01:58:21.605Z,76.51
2022-09-25T02:01:07.240Z,76.54
2022-09-25T02:03:44.825Z,76.49
2022-09-25T02:06:20.527Z,77.37
2022-09-25T02:09:04.654Z,76.41
2022-09-25T02:11:42.047Z,76.58
2022-09-25T02:14:19.984Z,77.17
2022-09-25T02:16:53.955Z,77.06
2022-09-25T02:19:40.379Z,76.63
2022-09-25T02:22:14.632Z,77.25
2022-09-25T02:24:59.441Z,77.01
2022-09-25T02:27:32.111Z,76.82
2022-09-25T02:30:00.164Z,76.60
2022-09-25T02:32:33.474Z,76.60
2022-09-25T02:35:02.130Z,76.51
2022-09-25T02:37:31.415Z,76.44
2022-09-25T02:40:02.613Z,75.93
2022-09-25T02:43:04.959Z,76.43
2022-09-25T02:46:14.300Z,76.42
2022-09-25T02:48:52.648Z,76.20
2022-09-25T02:51:34.543Z,76.33
2022-09-25T02:54:51.044Z,76.68
2022-09-25T02:57:51.207Z,76.03
2022-09-25T03:00:23.759Z,76.18
2022-09-25T03:03:00.322Z,76.24
2022-09-25T03:05:28.537Z,76.03
2022-09-25T03:08:18.752Z,76.37
2022-09-25T03:10:47.558Z,76.66
2022-09-25T03:13:34.016Z,76.65
2022-09-25T03:16:21.592Z,76.76
2022-09-25T03:18:49.915Z,75.94
2022-09-25T03:21:18.234Z,75.89
2022-09-25T03:23:46.289Z,76.46
2022-09-25T03:26:15.524Z,76.58
2022-09-25T03:28:43.540Z,76.76
2022-09-25T03:31:12.575Z,76.70
2022-09-25T03:33:44.154Z,76.24
2022-09-25T03:36:13.920Z,76.56
2022-09-25T03:39:02.995Z,76.15
2022-09-25T03:41:34.385Z,76.49
2022-09-25T03:44:03.171Z,76.11
2022-09-25T03:46:34.754Z,76.34
2022-09-25T03:49:03.991Z,76.36
2022-09-25T03:51:33.603Z,75.82
2022-09-25T03:54:02.949Z,75.84
2022-09-25T03:56:31.174Z,75.70
2022-09-25T03:58:59.456Z,75.63
2022-09-25T04:01:29.259Z,75.26
2022-09-25T04:03:57.312Z,75.14
2022-09-25T04:06:27.125Z,75.31
2022-09-25T04:08:56.367Z,75.06
2022-09-25T04:11:25.408Z,75.15
2022-09-25T04:13:54.119Z,75.08
2022-09-25T04:16:22.601Z,74.96
2022-09-25T04:18:52.035Z,74.95
2022-09-25T04:21:20.036Z,74.89
2022-09-25T04:24:08.094Z,74.96
2022-09-25T04:26:36.654Z,75.15
2022-09-25T04:29:05.041Z,75.12
2022-09-25T04:31:34.993Z,74.94
2022-09-25T04:34:04.746Z,74.72
2022-09-25T04:36:32.785Z,75.03
2022-09-25T04:39:01.967Z,74.80
2022-09-25T04:41:29.976Z,74.82
2022-09-25T04:44:12.770Z,74.48
2022-09-25T04:46:41.872Z,74.57
2022-09-25T04:49:09.881Z,74.36
2022-09-25T04:51:37.958Z,74.61
2022-09-25T04:54:07.517Z,74.49
2022-09-25T04:56:35.398Z,74.49
2022-09-25T04:59:03.318Z,74.51
2022-09-25T05:01:32.288Z,73.89
2022-09-25T05:04:02.770Z,73.95
2022-09-25T05:06:37.113Z,73.56
2022-09-25T05:09:05.330Z,73.63
2022-09-25T05:11:33.513Z,73.73
2022-09-25T05:14:02.048Z,73.86
2022-09-25T05:16:33.147Z,73.39
2022-09-25T05:19:01.159Z,73.84
2022-09-25T05:21:29.176Z,73.48
2022-09-25T05:23:59.050Z,73.64
2022-09-25T05:26:28.990Z,73.37
2022-09-25T05:28:57.541Z,73.58
2022-09-25T05:31:27.090Z,73.50
2022-09-25T05:33:55.642Z,73.16
2022-09-25T05:36:23.627Z,73.44
2022-09-25T05:38:52.673Z,73.56
2022-09-25T05:41:20.658Z,73.67
2022-09-25T05:43:48.764Z,73.39
2022-09-25T05:46:19.029Z,73.13
2022-09-25T05:48:47.134Z,73.19
2022-09-25T05:51:16.018Z,72.91
2022-09-25T05:53:44.243Z,72.85
2022-09-25T05:56:12.589Z,72.64
2022-09-25T05:58:40.597Z,72.37
2022-09-25T06:01:08.780Z,72.70
2022-09-25T06:03:36.827Z,72.46
2022-09-25T06:06:05.074Z,72.73
2022-09-25T06:08:38.215Z,72.70
2022-09-25T06:11:06.788Z,72.87
2022-09-25T06:13:37.381Z,72.64
2022-09-25T06:16:06.712Z,72.81
2022-09-25T06:18:34.901Z,73.24
2022-09-25T06:21:05.758Z,72.88
2022-09-25T06:23:34.096Z,73.28
2022-09-25T06:26:03.704Z,73.11
2022-09-25T06:28:32.070Z,73.40
2022-09-25T06:31:06.460Z,73.03
2022-09-25T06:33:34.527Z,73.22
2022-09-25T06:36:02.730Z,73.61
2022-09-25T06:38:30.881Z,73.55
2022-09-25T06:41:00.708Z,74.12
2022-09-25T06:43:30.901Z,73.88
2022-09-25T06:46:04.966Z,73.78
2022-09-25T06:48:33.293Z,74.09
2022-09-25T06:51:02.022Z,74.23
2022-09-25T06:53:31.421Z,74.17
2022-09-25T06:56:03.659Z,73.73
2022-09-25T06:58:31.974Z,73.96
2022-09-25T07:01:05.125Z,74.10
2022-09-25T07:03:48.962Z,74.23
2022-09-25T07:06:22.672Z,74.46
2022-09-25T07:08:54.690Z,74.05
2022-09-25T07:11:25.083Z,74.55
2022-09-25T07:13:58.495Z,74.76
2022-09-25T07:16:30.341Z,74.37
2022-09-25T07:19:02.119Z,74.06
2022-09-25T07:21:31.228Z,74.79
2022-09-25T07:23:59.431Z,74.86
2022-09-25T07:26:31.113Z,74.44
2022-09-25T07:29:07.322Z,74.97
2022-09-25T07:31:41.085Z,75.35
2022-09-25T07:34:12.385Z,75.02
2022-09-25T07:36:43.408Z,75.16
2022-09-25T07:39:16.064Z,75.25
2022-09-25T07:41:47.311Z,75.67
2022-09-25T07:44:28.718Z,75.55
2022-09-25T07:46:59.431Z,75.38
2022-09-25T07:49:28.223Z,75.75
2022-09-25T07:51:56.524Z,75.88
2022-09-25T07:54:25.877Z,76.35
2022-09-25T07:56:53.910Z,76.18
2022-09-25T07:59:22.079Z,76.60
2022-09-25T08:01:53.925Z,76.64
2022-09-25T08:04:22.545Z,77.01
2022-09-25T08:06:50.578Z,76.78
2022-09-25T08:09:20.264Z,77.18
2022-09-25T08:11:48.201Z,76.75
2022-09-25T08:14:16.759Z,77.44
2022-09-25T08:16:45.343Z,77.13
2022-09-25T08:19:13.586Z,77.09
2022-09-25T08:21:41.481Z,76.99
2022-09-25T08:24:10.513Z,77.07
2022-09-25T08:26:38.438Z,77.33
2022-09-25T08:29:07.694Z,77.58
2022-09-25T08:31:56.922Z,77.49
2022-09-25T08:34:41.688Z,77.14
2022-09-25T08:37:12.537Z,77.56
2022-09-25T08:39:40.472Z,77.61
2022-09-25T08:42:17.752Z,77.67
2022-09-25T08:45:22.160Z,77.68
2022-09-25T08:48:12.067Z,77.57
2022-09-25T08:50:41.798Z,76.92
2022-09-25T08:53:19.043Z,77.28
2022-09-25T08:56:07.015Z,77.55
2022-09-25T08:58:43.415Z,77.59
2022-09-25T09:01:16.683Z,77.86
2022-09-25T09:04:06.067Z,77.19
2022-09-25T09:06:35.288Z,77.44
2022-09-25T09:09:09.315Z,77.72
2022-09-25T09:12:08.705Z,77.43
2022-09-25T09:14:48.431Z,78.01
2022-09-25T09:17:21.128Z,77.71
2022-09-25T09:20:00.660Z,78.05
2022-09-25T09:22:43.114Z,78.03
2022-09-25T09:25:29.763Z,78.05
2022-09-25T09:28:20.261Z,78.16
2022-09-25T09:31:03.922Z,78.05
2022-09-25T09:33:50.343Z,78.28
2022-09-25T09:36:41.320Z,78.04
2022-09-25T09:39:41.820Z,78.17
2022-09-25T09:42:34.165Z,78.23
2022-09-25T09:45:23.677Z,78.22
2022-09-25T09:48:07.520Z,78.68
2022-09-25T09:50:44.467Z,78.64
2022-09-25T09:53:31.483Z,78.81
2022-09-25T09:56:23.372Z,79.12
2022-09-25T09:58:59.194Z,79.29
2022-09-25T10:01:42.697Z,79.59
2022-09-25T10:04:38.860Z,79.68
2022-09-25T10:07:19.141Z,78.90
2022-09-25T10:09:50.797Z,79.54
2022-09-25T10:12:37.137Z,79.76
2022-09-25T10:15:14.625Z,79.68
2022-09-25T10:17:44.088Z,79.26
2022-09-25T10:20:24.212Z,79.79
2022-09-25T10:22:57.352Z,79.39
2022-09-25T10:25:38.116Z,79.93
2022-09-25T10:28:27.701Z,80.31
2022-09-25T10:30:57.631Z,80.33
2022-09-25T10:33:26.941Z,80.18
2022-09-25T10:35:58.726Z,80.59
2022-09-25T10:38:33.114Z,80.72
2022-09-25T10:41:09.713Z,81.08
2022-09-25T10:43:57.525Z,81.31
2022-09-25T10:46:53.628Z,81.12
2022-09-25T10:49:42.419Z,81.26
2022-09-25T10:52:16.227Z,81.18
2022-09-25T10:54:45.961Z,81.66
2022-09-25T10:57:41.037Z,81.27
2022-09-25T11:00:29.580Z,81.44
2022-09-25T11:03:11.228Z,81.29
2022-09-25T11:05:55.058Z,81.62
2022-09-25T11:08:31.050Z,81.36
2022-09-25T11:11:01.360Z,81.73
2022-09-25T11:13:57.729Z,81.66
2022-09-25T11:16:52.830Z,81.67
2022-09-25T11:19:38.280Z,82.23
2022-09-25T11:22:17.272Z,82.12
2022-09-25T11:24:45.506Z,82.17
2022-09-25T11:27:19.678Z,81.63
2022-09-25T11:30:05.778Z,81.39
2022-09-25T11:32:42.736Z,81.73
2022-09-25T11:35:23.059Z,81.68
2022-09-25T11:38:02.620Z,81.79
2022-09-25T11:40:58.788Z,81.73
2022-09-25T11:43:54.351Z,81.49
2022-09-25T11:46:28.352Z,81.48
2022-09-25T11:49:16.922Z,81.50
2022-09-25T11:52:26.875Z,81.94
2022-09-25T11:55:13.270Z,82.47
2022-09-25T11:58:06.544Z,82.49
2022-09-25T12:00:50.412Z,81.92
2022-09-25T12:03:29.237Z,82.39
2022-09-25T12:05:59.967Z,82.38
2022-09-25T12:08:34.040Z,82.43
2022-09-25T12:11:14.193Z,82.82
2022-09-25T12:14:04.019Z,82.49
2022-09-25T12:17:16.395Z,82.44
2022-09-25T12:20:12.251Z,82.88
2022-09-25T12:23:01.244Z,83.03
2022-09-25T12:25:55.524Z,82.90
2022-09-25T12:28:40.518Z,82.84
2022-09-25T12:31:48.660Z,83.17
2022-09-25T12:34:34.642Z,83.06
2022-09-25T12:37:44.372Z,82.69
2022-09-25T12:40:25.188Z,83.12
2022-09-25T12:43:06.679Z,83.69
2022-09-25T12:46:02.360Z,83.72
2022-09-25T12:48:44.787Z,83.80
2022-09-25T12:51:22.363Z,84.21
2022-09-25T12:53:57.212Z,84.59
2022-09-25T12:56:34.722Z,84.75
2022-09-25T12:59:11.769Z,84.88
2022-09-25T13:02:08.902Z,84.37
2022-09-25T13:05:10.717Z,85.43
2022-09-25T13:08:07.872Z,85.79
2022-09-25T13:10:55.909Z,85.35
2022-09-25T13:13:27.617Z,84.64
2022-09-25T13:16:01.466Z,85.06
2022-09-25T13:18:34.590Z,85.57
2022-09-25T13:21:32.458Z,85.83
2022-09-25T13:24:00.829Z,85.23
2022-09-25T13:26:30.848Z,85.51
2022-09-25T13:29:19.770Z,85.83
2022-09-25T13:31:49.045Z,85.64
2022-09-25T13:34:24.836Z,85.99
2022-09-25T13:36:58.101Z,85.98
2022-09-25T13:39:45.143Z,85.92
2022-09-25T13:42:30.608Z,86.03
2022-09-25T13:45:32.072Z,86.09
2022-09-25T13:48:13.097Z,86.16
2022-09-25T13:50:44.103Z,86.13
2022-09-25T13:53:21.145Z,86.09
2022-09-25T13:55:59.642Z,85.90
2022-09-25T13:58:30.267Z,86.73
2022-09-25T14:01:00.506Z,86.64
2022-09-25T14:03:37.252Z,86.73
2022-09-25T14:06:10.648Z,85.85
2022-09-25T14:08:42.717Z,86.39
2022-09-25T14:11:14.430Z,86.39
2022-09-25T14:13:47.255Z,86.93
2022-09-25T14:16:23.825Z,86.97
2022-09-25T14:18:55.340Z,86.97
2022-09-25T14:21:23.878Z,86.81
2022-09-25T14:23:57.586Z,86.74
2022-09-25T14:26:31.233Z,86.68
2022-09-25T14:28:59.308Z,87.28
2022-09-25T14:31:33.324Z,86.99
2022-09-25T14:34:38.884Z,87.35
2022-09-25T14:37:16.349Z,87.10
2022-09-25T14:39:44.465Z,87.28
2022-09-25T14:42:20.297Z,87.26
2022-09-25T14:45:15.740Z,87.23
2022-09-25T14:47:48.015Z,87.22
2022-09-25T14:50:26.896Z,87.29
2022-09-25T14:53:03.475Z,87.54
2022-09-25T14:55:38.913Z,87.36
2022-09-25T14:58:16.504Z,87.64
2022-09-25T15:00:54.041Z,87.54
2022-09-25T15:03:42.329Z,87.92
2022-09-25T15:06:16.023Z,87.75
2022-09-25T15:08:44.496Z,87.76
2022-09-25T15:11:16.595Z,87.87
2022-09-25T15:13:46.668Z,88.25
2022-09-25T15:16:39.802Z,88.07
2022-09-25T15:19:21.778Z,87.61
2022-09-25T15:21:52.835Z,87.60
2022-09-25T15:24:28.364Z,87.97
2022-09-25T15:27:04.340Z,87.82
2022-09-25T15:29:39.775Z,87.72
2022-09-25T15:32:07.810Z,87.71
2022-09-25T15:34:36.059Z,88.02
2022-09-25T15:37:28.237Z,88.16
2022-09-25T15:39:57.736Z,87.91
2022-09-25T15:42:25.654Z,88.28
2022-09-25T15:44:54.788Z,87.94
2022-09-25T15:47:39.552Z,88.16
2022-09-25T15:50:20.670Z,87.47
2022-09-25T15:52:55.536Z,88.48
2022-09-25T15:55:24.429Z,88.02
2022-09-25T15:57:55.426Z,87.71
2022-09-25T16:00:45.456Z,87.92
2022-09-25T16:03:45.837Z,87.84
2022-09-25T16:06:18.214Z,88.08
2022-09-25T16:08:46.321Z,87.92
2022-09-25T16:11:25.478Z,88.09
2022-09-25T16:14:20.742Z,87.56
2022-09-25T16:16:52.158Z,87.42
2022-09-25T16:19:25.906Z,87.87
2022-09-25T16:21:55.355Z,87.78
2022-09-25T16:24:30.120Z,88.23
2022-09-25T16:27:01.293Z,87.34
2022-09-25T16:29:45.345Z,87.44
2022-09-25T16:32:20.286Z,87.44
2022-09-25T16:34:56.945Z,87.91
2022-09-25T16:37:33.863Z,87.72
2022-09-25T16:40:27.978Z,87.50
2022-09-25T16:42:58.467Z,87.31
2022-09-25T16:45:35.655Z,86.87
2022-09-25T16:48:39.985Z,86.58
2022-09-25T16:51:28.958Z,87.22
2022-09-25T16:53:59.782Z,87.56
2022-09-25T16:56:30.587Z,86.90
2022-09-25T16:59:00.751Z,87.00
2022-09-25T17:01:29.364Z,87.29
2022-09-25T17:04:00.489Z,86.85
2022-09-25T17:06:34.604Z,86.80
2022-09-25T17:09:02.809Z,86.68
2022-09-25T17:11:30.808Z,87.01
2022-09-25T17:14:00.679Z,86.79
2022-09-25T17:16:28.704Z,86.80
2022-09-25T17:19:01.169Z,86.40
2022-09-25T17:21:29.738Z,86.73
2022-09-25T17:23:57.677Z,87.05
2022-09-25T17:26:26.036Z,86.59
2022-09-25T17:28:56.085Z,86.84
2022-09-25T17:31:24.232Z,86.64
2022-09-25T17:33:52.219Z,86.66
2022-09-25T17:36:20.623Z,86.73
2022-09-25T17:38:48.517Z,86.77
2022-09-25T17:41:22.964Z,86.65
2022-09-25T17:43:51.037Z,86.53
2022-09-25T17:46:20.996Z,86.58
2022-09-25T17:48:54.268Z,86.75
2022-09-25T17:51:28.198Z,86.06
2022-09-25T17:53:57.205Z,86.31
2022-09-25T17:56:28.719Z,86.13
2022-09-25T17:58:57.904Z,85.85
2022-09-25T18:01:33.023Z,85.74
2022-09-25T18:04:15.193Z,85.31
2022-09-25T18:06:44.436Z,85.16
2022-09-25T18:09:12.570Z,85.37
2022-09-25T18:11:44.821Z,85.24
2022-09-25T18:14:17.320Z,85.24
2022-09-25T18:16:46.313Z,84.86
2022-09-25T18:19:38.040Z,85.12
2022-09-25T18:22:19.616Z,84.59
2022-09-25T18:24:55.135Z,84.88
2022-09-25T18:27:26.034Z,84.20
2022-09-25T18:29:54.228Z,84.40
2022-09-25T18:32:23.197Z,84.11
2022-09-25T18:34:51.382Z,84.12
2022-09-25T18:37:19.317Z,83.95
2022-09-25T18:39:49.638Z,83.24
2022-09-25T18:42:17.613Z,83.20
2022-09-25T18:44:45.559Z,83.56
2022-09-25T18:47:15.709Z,83.74
2022-09-25T18:49:44.221Z,83.61
2022-09-25T18:52:12.356Z,82.99
2022-09-25T18:54:59.683Z,83.37
2022-09-25T18:57:28.780Z,83.12
2022-09-25T18:59:56.825Z,83.33
2022-09-25T19:02:31.519Z,82.92
2022-09-25T19:05:00.641Z,83.63
2022-09-25T19:07:30.019Z,83.16
2022-09-25T19:09:59.421Z,83.14
2022-09-25T19:12:27.482Z,82.78
2022-09-25T19:14:55.926Z,83.28
2022-09-25T19:17:25.649Z,83.34
2022-09-25T19:19:53.296Z,83.50
2022-09-25T19:22:22.561Z,83.73
2022-09-25T19:24:53.372Z,83.52
2022-09-25T19:27:21.308Z,83.40
2022-09-25T19:29:49.211Z,83.72
2022-09-25T19:32:19.709Z,83.97
2022-09-25T19:34:47.750Z,84.18
2022-09-25T19:37:15.826Z,84.32
2022-09-25T19:40:06.566Z,84.06
2022-09-25T19:42:36.954Z,84.47
2022-09-25T19:45:05.222Z,84.57
2022-09-25T19:47:34.256Z,84.68
2022-09-25T19:50:02.872Z,84.52
2022-09-25T19:52:31.503Z,84.65
2022-09-25T19:54:59.696Z,84.62
2022-09-25T19:57:28.500Z,85.00
2022-09-25T19:59:56.511Z,84.84
2022-09-25T20:02:25.596Z,85.02
2022-09-25T20:04:53.609Z,84.83
2022-09-25T20:07:21.634Z,84.73
2022-09-25T20:09:50.495Z,84.62
2022-09-25T20:12:18.397Z,84.43
2022-09-25T20:14:46.366Z,84.64
2022-09-25T20:17:14.626Z,84.87
2022-09-25T20:19:42.631Z,85.08
2022-09-25T20:22:10.971Z,84.84
2022-09-25T20:24:38.981Z,85.09
2022-09-25T20:27:07.980Z,84.92
2022-09-25T20:29:35.996Z,85.17
2022-09-25T20:32:04.161Z,84.59
2022-09-25T20:34:32.116Z,84.83
2022-09-25T20:37:00.046Z,84.74
2022-09-25T20:39:28.335Z,85.10
2022-09-25T20:41:56.784Z,84.93
2022-09-25T20:44:24.777Z,84.90
2022-09-25T20:46:52.969Z,84.72
2022-09-25T20:49:21.554Z,84.86
2022-09-25T20:51:49.580Z,84.58
2022-09-25T20:54:17.676Z,84.77
2022-09-25T20:56:45.996Z,84.48
2022-09-25T20:59:16.001Z,84.94
2022-09-25T21:01:44.240Z,84.86
2022-09-25T21:04:12.329Z,84.57
2022-09-25T21:06:42.148Z,84.73
2022-09-25T21:09:15.509Z,84.97
2022-09-25T21:11:44.135Z,84.66
2022-09-25T21:14:18.137Z,85.12
2022-09-25T21:16:47.328Z,84.48
2022-09-25T21:19:17.350Z,84.94
2022-09-25T21:21:45.232Z,84.86
2022-09-25T21:24:17.152Z,84.82
2022-09-25T21:26:46.588Z,84.78
2022-09-25T21:29:16.792Z,84.60
2022-09-25T21:31:50.405Z,84.81
2022-09-25T21:34:20.285Z,84.65
2022-09-25T21:36:49.092Z,84.66
2022-09-25T21:39:17.467Z,85.02
2022-09-25T21:41:46.042Z,85.03
2022-09-25T21:44:16.510Z,84.64
2022-09-25T21:46:45.175Z,84.67
2022-09-25T21:49:21.576Z,85.12
2022-09-25T21:51:50.297Z,85.23
2022-09-25T21:54:20.647Z,85.24
2022-09-25T21:56:49.635Z,84.67
2022-09-25T21:59:18.329Z,84.87
2022-09-25T22:01:46.636Z,85.04
2022-09-25T22:04:14.841Z,85.52
2022-09-25T22:06:46.729Z,84.55
2022-09-25T22:09:19.997Z,85.15
2022-09-25T22:11:48.977Z,84.73
2022-09-25T22:14:18.122Z,85.28
2022-09-25T22:16:49.319Z,84.70
2022-09-25T22:19:28.869Z,84.76
2022-09-25T22:22:00.054Z,85.38
2022-09-25T22:24:28.599Z,85.28
2022-09-25T22:26:57.764Z,85.16
2022-09-25T22:29:29.170Z,85.13
2022-09-25T22:31:57.116Z,84.92
2022-09-25T22:34:29.376Z,85.28
2022-09-25T22:37:00.483Z,84.84
2022-09-25T22:39:30.389Z,84.91
2022-09-25T22:41:58.464Z,85.22
2022-09-25T22:44:27.153Z,85.22
2022-09-25T22:46:55.162Z,84.69
2022-09-25T22:49:23.772Z,85.17
2022-09-25T22:51:53.768Z,84.70
2022-09-25T22:54:21.784Z,85.03
2022-09-25T22:56:49.732Z,84.59
2022-09-25T22:59:19.077Z,84.72
2022-09-25T23:01:55.105Z,84.78
2022-09-25T23:04:25.505Z,84.83
2022-09-25T23:06:54.790Z,85.08
2022-09-25T23:09:27.915Z,85.00
2022-09-25T23:11:58.585Z,84.84
2022-09-25T23:14:30.217Z,84.29
2022-09-25T23:16:59.376Z,84.29
2022-09-25T23:19:27.704Z,84.27
2022-09-25T23:21:56.295Z,84.10
2022-09-25T23:24:25.254Z,84.07
2022-09-25T23:26:54.412Z,84.74
2022-09-25T23:29:23.038Z,84.71
2022-09-25T23:31:51.908Z,84.68
2022-09-25T23:34:20.525Z,84.50
2022-09-25T23:36:48.605Z,84.10
2022-09-25T23:39:19.784Z,84.40
2022-09-25T23:41:49.635Z,84.69
2022-09-25T23:44:17.829Z,84.47
2022-09-25T23:46:45.762Z,84.16
2022-09-25T23:49:15.410Z,84.22
2022-09-25T23:51:43.103Z,84.21
2022-09-25T23:54:11.430Z,85.00
2022-09-25T23:56:41.771Z,84.46
2022-09-25T23:59:12.226Z,84.60
